ROTAER D-AMDT 3/20 Ver Mudanças

MARIO RIBEIRO ( SBMK ) / MONTES CLAROS, MG 16 42 22S/043 49 19W
AD PUB INFRAERO 5E UTC-3 VFR IFR L21 , L26 668 (2192)

12 - L6 [1] , L9 , L12 - ( 2100x45 ASPH 34/F/B/X/T L14 , L15 ) - L12 - 30

(CINDACTA 1)
COM -
RÁDIO [2] [4] 131.700
RDONAV -
NDB MCL [2] 310 1642.20S/04349.15W
CMB- [4] PF TF RFFS - CAT - 6
MET -

[2] [4] [3] (38)3229-1223 CMA 1,2,3,4,5,6,7,8,9

AIS - [2] [3] [5]

RMK -

PROCEDIMENTOS DE VOO
  1. Aceita AFIL por radiotelefonia
INFORMAÇÃO ADICIONAL
  1. OBS ACFT em vôo de instrução próximo ao AD
  2. OBS Concentração de urubus na APCH final RWY 12
CARTAS RELACIONADAS AO AERÓDROMO
  1. Cartas ver AIP MAP
COMPL -
  • [1] MEHT: 39FT
  • [2] OPR INFRAERO
  • [3] Autoatendimento
  • [4] (DLY 0800-0400)
  • [5] Para informações adicionais consultar a Sala AIS SBBH, TEL/FAX PLN: (31) 3490-2134.
TEMP (0)

Suplementos AIP (0)

NOTAM (1)

AGA

Z1269/19 N 07/11/2019 17:23
COMBATE DE INCENDIO E SALVAMENTO CAT 5 MODIFICADO PARA CAT 6
REF: AIP MAP ADC


Nascer/Por do Sol

08:36

21:35


METAR

190800Z 00000KT CAVOK 21/18 Q1017=

TAF

190400Z 1906/1918 00000KT CAVOK TN22/1906Z TX33/1917Z BECMG 1908/1910 07008KT BECMG 1915/1917 10008KT SCT040 RMK PEH=


Cartas (7)

ADC


IAC


SID



Rotas Preferenciais (0)